Latest Weather Observations for Meekatharra

IDW60801

Issued at 9:03 am WST Sunday 5 July 2020 (issued every 10 minutes, with the page automatically refreshed every 10 minutes)

About weather observations | Map of weather stations | Latest weather observations for WA | Other Formats
Station Details ID: 007045 Name: MEEKATHARRA AIRPORT Lat: -26.61 Lon: 118.54 Height: 517.0 m
Data from the previous 72 hours. | See also: Recent months at Meekatharra
Date/Time
WST
Temp
°C
App
Temp
°C
Dew
Point
°C
Rel
Hum
%
Delta-T
°C
Wind Press
QNH
hPa
Press
MSL
hPa
Rain since
9am
mm
Dir  Spd
km/h
Gust
km/h
Spd
kts
Gust
kts
05/09:00am 17.9 12.2 2.6 36 7.2 NNE 22 32 12 17 1023.2 1022.7 0.0
05/08:30am 16.3 10.9 2.7 40 6.3 NNE 20 28 11 15 1022.9 1022.4 0.0
05/08:00am 13.7 9.2 2.3 46 5.1 NE 15 19 8 10 1022.9 1022.4 0.0
05/07:30am 12.4 8.3 2.3 50 4.5 NE 13 17 7 9 1022.8 1022.3 0.0
05/07:00am 11.2 7.1 2.0 53 4.0 NE 13 17 7 9 1022.5 1022.0 0.0
05/06:30am 11.8 7.3 2.0 51 4.3 ENE 15 17 8 9 1022.1 1021.6 0.0
05/06:00am 12.5 8.0 2.1 49 4.6 ENE 15 19 8 10 1021.8 1021.3 0.0
05/05:30am 12.7 8.2 2.0 48 4.8 E 15 17 8 9 1021.8 1021.3 0.0
05/05:00am 12.8 8.3 2.4 49 4.7 ENE 15 19 8 10 1021.7 1021.2 0.0
05/04:30am 11.4 7.2 1.6 51 4.3 ENE 13 17 7 9 1021.8 1021.3 0.0
05/04:00am 11.2 7.4 1.5 51 4.2 NE 11 13 6 7 1022.0 1021.5 0.0
05/03:30am 11.6 7.8 1.5 50 4.4 ENE 11 11 6 6 1022.2 1021.7 0.0
05/03:00am 12.0 8.2 1.6 49 4.5 ENE 11 11 6 6 1022.5 1022.0 0.0
05/02:30am 12.4 8.5 1.4 47 4.8 ENE 11 15 6 8 1022.9 1022.4 0.0
05/02:00am 12.7 8.5 1.4 46 4.9 ENE 13 15 7 8 1023.1 1022.6 0.0
05/01:30am 12.5 8.6 0.9 45 5.0 ENE 11 15 6 8 1023.3 1022.8 0.0
05/01:00am 12.8 8.8 0.5 43 5.3 E 11 13 6 7 1023.4 1022.9 0.0
05/12:30am 13.2 8.8 0.3 41 5.6 E 13 15 7 8 1023.5 1023.0 0.0
05/12:00am 13.4 8.9 -0.3 39 5.8 E 13 15 7 8 1023.7 1023.2 0.0
 
Date/Time
WST
Temp
°C
App
Temp
°C
Dew
Point
°C
Rel
Hum
%
Delta-T
°C
Wind Press
QNH
hPa
Press
MSL
hPa
Rain since
9am
mm
Dir  Spd
km/h
Gust
km/h
Spd
kts
Gust
kts
04/11:30pm 13.4 9.6 -0.6 38 5.9 ESE 9 11 5 6 1023.9 1023.4 0.0
04/11:00pm 14.3 10.2 -0.5 36 6.3 E 11 15 6 8 1024.0 1023.5 0.0
04/10:30pm 14.8 10.2 -0.9 34 6.7 E 13 17 7 9 1024.1 1023.6 0.0
04/10:00pm 14.9 9.9 -1.2 33 6.8 E 15 19 8 10 1024.1 1023.6 0.0
04/09:30pm 15.1 10.4 -1.5 32 7.0 E 13 15 7 8 1024.1 1023.6 0.0
04/09:00pm 16.0 11.0 -1.1 31 7.3 E 15 19 8 10 1024.1 1023.6 0.0
04/08:30pm 15.3 10.9 -2.2 30 7.3 ESE 11 13 6 7 1024.2 1023.7 0.0
04/08:00pm 16.0 11.6 -2.5 28 7.7 ESE 11 13 6 7 1024.2 1023.7 0.0
04/07:30pm 17.0 12.2 -2.6 26 8.2 ESE 13 15 7 8 1024.1 1023.6 0.0
04/07:00pm 18.0 13.2 -2.3 25 8.6 SE 13 15 7 8 1023.8 1023.3 0.0
04/06:30pm 18.1 13.7 -2.8 24 8.8 ESE 11 13 6 7 1023.5 1023.0 0.0
04/06:00pm 19.0 15.0 -2.6 23 9.2 E 9 11 5 6 1023.3 1022.8 0.0
04/05:30pm 21.2 16.9 -2.0 21 10.2 E 11 15 6 8 1023.1 1022.6 0.0
04/05:00pm 22.2 17.0 -2.5 19 10.8 E 15 20 8 11 1022.9 1022.4 0.0
04/04:30pm 22.7 18.3 -2.1 19 11.1 E 11 17 6 9 1022.9 1022.4 0.0
04/04:00pm 22.8 18.7 -2.7 18 11.2 E 9 17 5 9 1022.9 1022.4 0.0
04/03:30pm 22.8 17.6 -2.7 18 11.3 ENE 15 22 8 12 1022.9 1022.4 0.0
04/03:00pm 23.2 18.4 -2.4 18 11.4 E 13 20 7 11 1023.0 1022.5 0.0
04/02:30pm 23.2 18.5 -1.7 19 11.2 E 13 20 7 11 1023.2 1022.7 0.0
04/02:00pm 22.8 17.9 -0.6 21 10.7 ENE 15 28 8 15 1023.4 1022.9 0.0
04/01:30pm 22.2 17.7 -0.5 22 10.4 ENE 13 24 7 13 1023.9 1023.4 0.0
04/01:00pm 22.4 16.9 0.3 23 10.2 ENE 19 30 10 16 1024.4 1024.0 0.0
04/12:30pm 21.7 16.5 0.3 24 9.9 ENE 17 24 9 13 1025.0 1024.5 0.0
04/12:00pm 21.0 15.5 0.8 26 9.3 NE 19 30 10 16 1025.5 1025.0 0.0
04/11:30am 20.7 15.2 1.6 28 9.0 ENE 20 28 11 15 1026.1 1025.7 0.0
04/11:00am 19.9 15.0 1.8 30 8.5 ENE 17 24 9 13 1026.8 1026.3 0.0
04/10:30am 18.6 12.6 1.2 31 8.0 ENE 22 28 12 15 1027.2 1026.7 0.0
04/10:00am 18.1 12.8 1.6 33 7.6 ENE 19 28 10 15 1027.3 1026.8 0.0
04/09:30am 16.4 10.8 1.3 36 6.8 ENE 20 28 11 15 1027.5 1027.0 0.0
04/09:00am 14.4 9.0 1.3 41 5.8 ENE 19 26 10 14 1027.6 1027.1 0.0
04/08:30am 12.7 7.7 1.4 46 5.0 ENE 17 26 9 14 1027.6 1027.1 0.0
04/08:00am 10.3 6.4 0.9 52 4.0 E 11 17 6 9 1027.4 1026.9 0.0
04/07:30am 9.0 5.4 0.7 56 3.5 E 9 11 5 6 1027.3 1026.8 0.0
04/07:00am 7.9 4.3 0.4 59 3.1 E 9 11 5 6 1027.3 1026.8 0.0
04/06:30am 8.9 5.0 0.9 57 3.4 ENE 11 15 6 8 1027.0 1026.5 0.0
04/06:00am 9.0 5.0 0.7 56 3.4 E 11 15 6 8 1026.9 1026.4 0.0
04/05:30am 8.9 4.9 0.6 56 3.5 ENE 11 15 6 8 1026.8 1026.3 0.0
04/05:00am 9.4 5.0 0.6 54 3.7 ENE 13 17 7 9 1026.8 1026.3 0.0
04/04:30am 9.5 4.7 0.4 53 3.8 E 15 17 8 9 1026.8 1026.3 0.0
04/04:00am 9.7 4.9 0.3 52 3.9 E 15 19 8 10 1026.8 1026.3 0.0
04/03:30am 10.0 5.2 0.3 51 4.1 ENE 15 19 8 10 1026.8 1026.3 0.0
04/03:00am 9.9 4.7 0.3 51 4.0 E 17 20 9 11 1026.9 1026.4 0.0
04/02:30am 9.1 4.6 -0.2 52 3.8 ENE 13 17 7 9 1027.1 1026.6 0.0
04/02:00am 9.6 4.7 -0.3 50 4.0 ENE 15 19 8 10 1027.3 1026.8 0.0
04/01:30am 10.2 5.4 0.0 49 4.2 E 15 19 8 10 1027.6 1027.1 0.0
04/01:00am 10.2 6.1 -0.3 48 4.3 ENE 11 13 6 7 1027.6 1027.1 0.0
04/12:30am 10.8 6.3 0.0 47 4.5 E 13 15 7 8 1027.6 1027.1 0.0
04/12:00am 11.1 7.0 -0.4 45 4.7 E 11 15 6 8 1027.6 1027.1 0.0
 
Date/Time
WST
Temp
°C
App
Temp
°C
Dew
Point
°C
Rel
Hum
%
Delta-T
°C
Wind Press
QNH
hPa
Press
MSL
hPa
Rain since
9am
mm
Dir  Spd
km/h
Gust
km/h
Spd
kts
Gust
kts
03/11:30pm 12.1 7.3 -0.1 43 5.2 E 15 17 8 9 1027.8 1027.4 0.0
03/11:00pm 12.7 7.5 -0.2 41 5.4 E 17 22 9 12 1028.0 1027.6 0.0
03/10:30pm 12.8 7.6 -0.1 41 5.5 E 17 20 9 11 1028.2 1027.8 0.0
03/10:00pm 13.2 8.3 -0.4 39 5.7 E 15 20 8 11 1028.3 1027.9 0.0
03/09:30pm 13.6 9.1 -0.4 38 6.0 E 13 17 7 9 1028.2 1027.8 0.0
03/09:00pm 14.2 9.7 -0.6 36 6.3 ESE 13 17 7 9 1028.1 1027.7 0.0
03/08:30pm 14.8 9.9 -0.5 35 6.6 E 15 19 8 10 1027.9 1027.5 0.0
03/08:00pm 15.1 10.2 -0.6 34 6.7 ESE 15 19 8 10 1027.6 1027.1 0.0
03/07:30pm 15.9 11.0 -0.8 32 7.2 ESE 15 20 8 11 1027.2 1026.7 0.0
03/07:00pm 16.5 11.6 -0.7 31 7.4 ESE 15 19 8 10 1026.9 1026.4 0.0
03/06:30pm 17.3 12.7 -0.9 29 7.9 ESE 13 17 7 9 1026.5 1026.1 0.0
03/06:00pm 18.3 14.1 -1.0 27 8.4 ESE 11 15 6 8 1026.1 1025.7 0.0
03/05:30pm 19.5 14.8 -1.6 24 9.2 E 13 19 7 10 1025.6 1025.1 0.0
03/05:00pm 20.5 14.5 -1.9 22 9.8 E 20 26 11 14 1025.2 1024.7 0.0
03/04:30pm 21.2 15.3 -2.0 21 10.2 E 19 24 10 13 1025.0 1024.5 0.0
03/04:00pm 21.7 15.7 -1.6 21 10.4 E 20 28 11 15 1024.8 1024.3 0.0
03/03:30pm 21.8 16.0 -1.5 21 10.4 E 19 32 10 17 1024.6 1024.2 0.0
03/03:00pm 21.9 16.2 -0.8 22 10.3 E 19 30 10 16 1024.6 1024.2 0.0
03/02:30pm 21.6 15.7 -1.0 22 10.2 E 20 35 11 19 1024.8 1024.3 0.0
03/02:00pm 21.4 15.0 -1.8 21 10.2 E 22 32 12 17 1025.1 1024.6 0.0
03/01:30pm 20.8 15.0 -1.7 22 10.0 E 19 26 10 14 1025.5 1025.0 0.0
03/01:00pm 20.5 14.8 -0.7 24 9.5 E 19 28 10 15 1025.8 1025.3 0.0
03/12:30pm 20.1 14.2 -0.5 25 9.3 E 20 30 11 16 1026.3 1025.9 0.0
03/12:00pm 19.4 13.3 0.4 28 8.6 E 22 30 12 16 1026.9 1026.4 0.0
03/11:30am 19.0 13.4 1.1 30 8.2 ENE 20 32 11 17 1027.1 1026.6 0.0
03/11:00am 18.0 11.6 1.1 32 7.7 ENE 24 35 13 19 1027.5 1027.0 0.0
03/10:30am 17.2 10.5 1.2 34 7.3 ENE 26 35 14 19 1027.9 1027.5 0.0
03/10:00am 16.5 9.3 1.0 35 6.9 ENE 28 39 15 21 1028.1 1027.7 0.0
03/09:30am 15.2 8.0 1.0 38 6.3 ENE 28 37 15 20 1028.1 1027.7 0.0
03/09:00am 14.3 7.5 0.9 40 5.9 ENE 26 33 14 18 1028.2 1027.8 0.0
03/08:30am 13.0 6.2 0.7 43 5.3 ENE 26 37 14 20 1028.1 1027.7 0.0
03/08:00am 12.1 5.3 0.8 46 4.8 ENE 26 33 14 18 1027.8 1027.4 0.0
03/07:30am 11.3 5.6 0.7 48 4.5 ENE 20 28 11 15 1027.8 1027.4 0.0
03/07:00am 10.7 5.0 0.4 49 4.3 ENE 20 30 11 16 1027.4 1026.9 0.0
03/06:30am 11.0 5.3 0.7 49 4.4 ENE 20 30 11 16 1027.0 1026.5 0.0
03/06:00am 11.1 5.6 0.8 49 4.4 ENE 19 26 10 14 1026.4 1026.0 0.0
03/05:30am 10.5 4.8 0.5 50 4.2 E 20 26 11 14 1025.9 1025.4 0.0
03/05:00am 10.3 5.2 0.6 51 4.1 E 17 22 9 12 1025.6 1025.1 0.0
03/04:30am 10.4 6.1 0.7 51 4.1 ENE 13 19 7 10 1025.5 1025.0 0.0
03/04:00am 10.4 5.7 0.7 51 4.1 E 15 19 8 10 1025.1 1024.6 0.0
03/03:30am 10.5 5.7 0.5 50 4.2 E 15 19 8 10 1025.1 1024.6 0.0
03/03:00am 11.1 6.0 0.8 49 4.4 ESE 17 20 9 11 1025.1 1024.6 0.0
03/02:30am 11.3 6.2 1.0 49 4.4 ESE 17 20 9 11 1025.0 1024.5 0.0
03/02:00am 11.6 7.3 1.3 49 4.4 ESE 13 19 7 10 1025.0 1024.5 0.0
03/01:30am 12.2 7.2 1.2 47 4.8 E 17 20 9 11 1024.9 1024.4 0.0
03/01:00am 12.7 7.3 1.4 46 4.9 E 19 24 10 13 1024.8 1024.3 0.0
03/12:30am 13.1 7.6 1.8 46 5.0 E 20 26 11 14 1025.0 1024.5 0.0
03/12:00am 13.1 8.2 1.8 46 5.0 E 17 20 9 11 1025.1 1024.6 0.0
 
Date/Time
WST
Temp
°C
App
Temp
°C
Dew
Point
°C
Rel
Hum
%
Delta-T
°C
Wind Press
QNH
hPa
Press
MSL
hPa
Rain since
9am
mm
Dir  Spd
km/h
Gust
km/h
Spd
kts
Gust
kts
02/11:30pm 13.3 8.4 1.9 46 5.1 E 17 22 9 12 1025.1 1024.6 0.0
02/11:00pm 13.4 9.2 1.7 45 5.2 E 13 15 7 8 1025.1 1024.6 0.0
02/10:30pm 13.8 9.6 1.8 44 5.4 E 13 17 7 9 1025.1 1024.6 0.0
02/10:00pm 13.7 9.5 1.4 43 5.4 E 13 19 7 10 1025.0 1024.5 0.0
02/09:30pm 14.2 9.5 1.2 41 5.8 ESE 15 20 8 11 1024.9 1024.4 0.0
02/09:00pm 14.7 9.6 0.9 39 6.1 ESE 17 20 9 11 1024.6 1024.2 0.0
02/08:30pm 15.1 10.4 0.9 38 6.3 ESE 15 17 8 9 1024.5 1024.1 0.0
02/08:00pm 16.0 11.3 1.0 36 6.7 ESE 15 19 8 10 1024.2 1023.7 0.0
02/07:30pm 16.5 11.8 1.0 35 7.0 ESE 15 19 8 10 1023.7 1023.2 0.0
02/07:00pm 16.9 12.6 1.0 34 7.2 SE 13 17 7 9 1023.3 1022.8 0.0
02/06:30pm 17.4 13.2 1.4 34 7.3 SE 13 20 7 11 1022.9 1022.4 0.0
02/06:00pm 18.2 14.0 1.7 33 7.6 SE 13 19 7 10 1022.4 1021.9 0.0
02/05:30pm 19.1 14.1 1.6 31 8.1 ESE 17 24 9 13 1022.0 1021.5 0.0
02/05:00pm 20.0 14.6 1.4 29 8.7 SE 19 24 10 13 1021.6 1021.1 0.0
02/04:30pm 20.6 15.2 1.5 28 9.0 SE 19 24 10 13 1021.4 1020.9 0.0
02/04:00pm 21.1 15.6 1.9 28 9.1 SE 20 28 11 15 1021.2 1020.7 0.0
02/03:30pm 21.4 16.5 2.2 28 9.2 SE 17 28 9 15 1021.1 1020.6 0.0
02/03:00pm 21.3 16.5 2.6 29 9.0 ESE 17 24 9 13 1021.1 1020.6 0.0
02/02:30pm 20.8 16.1 3.1 31 8.6 ESE 17 26 9 14 1021.2 1020.7 0.0
02/02:00pm 20.8 16.5 3.1 31 8.6 ESE 15 20 8 11 1021.4 1020.9 0.0
02/01:30pm 20.5 16.3 3.7 33 8.2 ESE 15 24 8 13 1021.6 1021.1 0.0
02/01:00pm 19.8 15.5 3.5 34 7.9 ESE 15 26 8 14 1022.0 1021.5 0.0
02/12:30pm 18.8 14.5 3.4 36 7.4 ESE 15 22 8 12 1022.4 1021.9 0.0
02/12:00pm 18.1 13.5 3.9 39 6.8 ESE 17 24 9 13 1023.1 1022.6 0.0
02/11:30am 17.4 12.5 4.0 41 6.5 E 19 28 10 15 1023.6 1023.1 0.0
02/11:00am 16.8 11.8 4.5 44 5.9 E 20 32 11 17 1024.0 1023.5 0.0
02/10:30am 15.2 9.7 4.0 47 5.3 E 22 32 12 17 1024.2 1023.7 0.0
02/10:00am 14.4 9.2 3.8 49 5.0 E 20 26 11 14 1024.3 1023.8 0.0
02/09:30am 13.2 6.9 3.8 53 4.4 ESE 26 33 14 18 1024.2 1023.7 0.0

Other formats

Comma delimited format used in spreadsheet applications
http://www.bom.gov.au/fwo/IDW60801/IDW60801.94430.axf

JavaScript Object Notation format (JSON) in row-major order
http://www.bom.gov.au/fwo/IDW60801/IDW60801.94430.json

Data quality

Most of these data are generated automatically and are frequently updated. Quality checks on data are not normally performed. It is possible for incorrect values to appear. Refer to information at About Latest Weather Observations and please check the disclaimer before using these data.